sensor_id;sensor_type;location;lat;lon;timestamp;temperature;humidity
9403;DHT22;4741;49.834;10.740;2022-12-18T00:01:18;-10.90;99.90
9403;DHT22;4741;49.834;10.740;2022-12-18T00:03:47;-11.70;99.90
9403;DHT22;4741;49.834;10.740;2022-12-18T00:06:15;-10.80;99.90
9403;DHT22;4741;49.834;10.740;2022-12-18T00:08:43;-11.80;99.90
9403;DHT22;4741;49.834;10.740;2022-12-18T00:11:11;-11.80;99.90
9403;DHT22;4741;49.834;10.740;2022-12-18T00:13:41;-11.10;99.90
9403;DHT22;4741;49.834;10.740;2022-12-18T00:16:09;-12.00;99.90
9403;DHT22;4741;49.834;10.740;2022-12-18T00:18:37;-11.30;99.90
9403;DHT22;4741;49.834;10.740;2022-12-18T00:21:06;-12.00;99.90
9403;DHT22;4741;49.834;10.740;2022-12-18T00:23:38;-12.10;99.90
9403;DHT22;4741;49.834;10.740;2022-12-18T00:26:07;-11.90;99.90
9403;DHT22;4741;49.834;10.740;2022-12-18T00:28:37;-12.40;99.90
9403;DHT22;4741;49.834;10.740;2022-12-18T00:31:05;-12.20;99.90
9403;DHT22;4741;49.834;10.740;2022-12-18T00:33:34;-12.90;99.90
9403;DHT22;4741;49.834;10.740;2022-12-18T00:36:06;-12.20;99.90
9403;DHT22;4741;49.834;10.740;2022-12-18T00:38:35;-12.30;99.90
9403;DHT22;4741;49.834;10.740;2022-12-18T00:41:02;-11.20;99.90
9403;DHT22;4741;49.834;10.740;2022-12-18T00:43:29;-12.40;99.90
9403;DHT22;4741;49.834;10.740;2022-12-18T00:45:56;-12.40;99.90
9403;DHT22;4741;49.834;10.740;2022-12-18T00:48:23;-12.50;99.90
9403;DHT22;4741;49.834;10.740;2022-12-18T00:50:50;-12.20;99.90
9403;DHT22;4741;49.834;10.740;2022-12-18T00:53:17;-12.60;99.90
9403;DHT22;4741;49.834;10.740;2022-12-18T00:55:45;-12.50;99.90
9403;DHT22;4741;49.834;10.740;2022-12-18T00:58:12;-12.60;99.90
9403;DHT22;4741;49.834;10.740;2022-12-18T01:00:44;-12.80;99.90
9403;DHT22;4741;49.834;10.740;2022-12-18T01:03:12;-12.50;99.90
9403;DHT22;4741;49.834;10.740;2022-12-18T01:05:41;-11.70;99.90
9403;DHT22;4741;49.834;10.740;2022-12-18T01:08:08;-11.80;99.90
9403;DHT22;4741;49.834;10.740;2022-12-18T01:10:35;-11.50;99.90
9403;DHT22;4741;49.834;10.740;2022-12-18T01:13:02;-12.40;99.90
9403;DHT22;4741;49.834;10.740;2022-12-18T01:15:29;-12.10;99.90
9403;DHT22;4741;49.834;10.740;2022-12-18T01:17:56;-12.20;99.90
9403;DHT22;4741;49.834;10.740;2022-12-18T01:20:23;-11.70;99.90
9403;DHT22;4741;49.834;10.740;2022-12-18T01:22:49;-12.50;99.90
9403;DHT22;4741;49.834;10.740;2022-12-18T01:25:16;-12.70;99.90
9403;DHT22;4741;49.834;10.740;2022-12-18T01:27:43;-11.70;99.90
9403;DHT22;4741;49.834;10.740;2022-12-18T01:30:10;-12.40;99.90
9403;DHT22;4741;49.834;10.740;2022-12-18T01:32:37;-12.30;99.90
9403;DHT22;4741;49.834;10.740;2022-12-18T01:35:04;-12.40;99.90
9403;DHT22;4741;49.834;10.740;2022-12-18T01:37:31;-12.30;99.90
9403;DHT22;4741;49.834;10.740;2022-12-18T01:39:58;-12.40;99.90
9403;DHT22;4741;49.834;10.740;2022-12-18T01:42:25;-12.70;99.90
9403;DHT22;4741;49.834;10.740;2022-12-18T01:49:55;-12.60;99.90
9403;DHT22;4741;49.834;10.740;2022-12-18T01:52:24;-12.30;99.90
9403;DHT22;4741;49.834;10.740;2022-12-18T01:54:54;-11.60;99.90
9403;DHT22;4741;49.834;10.740;2022-12-18T01:57:23;-12.30;99.90
9403;DHT22;4741;49.834;10.740;2022-12-18T01:59:52;-11.70;99.90
9403;DHT22;4741;49.834;10.740;2022-12-18T02:02:20;-12.60;99.90
9403;DHT22;4741;49.834;10.740;2022-12-18T02:04:48;-12.70;99.90
9403;DHT22;4741;49.834;10.740;2022-12-18T02:07:26;-12.80;99.90
9403;DHT22;4741;49.834;10.740;2022-12-18T02:12:53;-12.30;99.90
9403;DHT22;4741;49.834;10.740;2022-12-18T02:15:38;-12.40;99.90
9403;DHT22;4741;49.834;10.740;2022-12-18T02:18:11;-12.40;99.90
9403;DHT22;4741;49.834;10.740;2022-12-18T02:20:45;-11.90;99.90
9403;DHT22;4741;49.834;10.740;2022-12-18T02:28:56;-12.10;99.90
9403;DHT22;4741;49.834;10.740;2022-12-18T02:31:29;-12.20;99.90
9403;DHT22;4741;49.834;10.740;2022-12-18T02:34:01;-12.00;99.90
9403;DHT22;4741;49.834;10.740;2022-12-18T02:36:31;-12.70;99.90
9403;DHT22;4741;49.834;10.740;2022-12-18T02:38:59;-12.50;99.90
9403;DHT22;4741;49.834;10.740;2022-12-18T02:41:28;-12.50;99.90
9403;DHT22;4741;49.834;10.740;2022-12-18T02:43:57;-12.40;99.90
9403;DHT22;4741;49.834;10.740;2022-12-18T02:46:31;-12.30;99.90
9403;DHT22;4741;49.834;10.740;2022-12-18T02:49:20;-12.10;99.90
9403;DHT22;4741;49.834;10.740;2022-12-18T02:52:02;-12.20;99.90
9403;DHT22;4741;49.834;10.740;2022-12-18T02:59:07;-11.90;99.90
9403;DHT22;4741;49.834;10.740;2022-12-18T03:04:38;-12.60;99.90
9403;DHT22;4741;49.834;10.740;2022-12-18T03:07:11;-12.50;99.90
9403;DHT22;4741;49.834;10.740;2022-12-18T03:09:46;-12.50;99.90
9403;DHT22;4741;49.834;10.740;2022-12-18T03:12:18;-12.60;99.90
9403;DHT22;4741;49.834;10.740;2022-12-18T03:15:00;-11.70;99.90
9403;DHT22;4741;49.834;10.740;2022-12-18T03:17:32;-12.50;99.90
9403;DHT22;4741;49.834;10.740;2022-12-18T03:20:02;-12.70;99.90
9403;DHT22;4741;49.834;10.740;2022-12-18T03:22:32;-12.50;99.90
9403;DHT22;4741;49.834;10.740;2022-12-18T03:25:03;-11.60;99.90
9403;DHT22;4741;49.834;10.740;2022-12-18T03:27:32;-12.50;99.90
9403;DHT22;4741;49.834;10.740;2022-12-18T03:30:06;-12.60;99.90
9403;DHT22;4741;49.834;10.740;2022-12-18T03:35:14;-12.50;99.90
9403;DHT22;4741;49.834;10.740;2022-12-18T03:37:45;-12.60;99.90
9403;DHT22;4741;49.834;10.740;2022-12-18T03:40:12;-11.90;99.90
9403;DHT22;4741;49.834;10.740;2022-12-18T03:42:49;-12.60;99.90
9403;DHT22;4741;49.834;10.740;2022-12-18T03:45:40;-12.30;99.90
9403;DHT22;4741;49.834;10.740;2022-12-18T03:51:02;-10.90;99.90
9403;DHT22;4741;49.834;10.740;2022-12-18T03:53:40;-12.20;99.90
9403;DHT22;4741;49.834;10.740;2022-12-18T03:56:13;-12.30;99.90
9403;DHT22;4741;49.834;10.740;2022-12-18T03:58:42;-11.70;99.90
9403;DHT22;4741;49.834;10.740;2022-12-18T04:01:12;-12.70;99.90
9403;DHT22;4741;49.834;10.740;2022-12-18T04:03:41;-12.50;99.90
9403;DHT22;4741;49.834;10.740;2022-12-18T04:06:11;-12.60;99.90
9403;DHT22;4741;49.834;10.740;2022-12-18T04:08:38;-12.80;99.90
9403;DHT22;4741;49.834;10.740;2022-12-18T04:11:06;-12.60;99.90
9403;DHT22;4741;49.834;10.740;2022-12-18T04:13:36;-12.60;99.90
9403;DHT22;4741;49.834;10.740;2022-12-18T04:16:05;-12.60;99.90
9403;DHT22;4741;49.834;10.740;2022-12-18T04:18:32;-12.70;99.90
9403;DHT22;4741;49.834;10.740;2022-12-18T04:20:58;-12.80;99.90
9403;DHT22;4741;49.834;10.740;2022-12-18T04:23:25;-12.90;99.90
9403;DHT22;4741;49.834;10.740;2022-12-18T04:25:52;-12.90;99.90
9403;DHT22;4741;49.834;10.740;2022-12-18T04:28:19;-12.20;99.90
9403;DHT22;4741;49.834;10.740;2022-12-18T04:30:46;-12.10;99.90
9403;DHT22;4741;49.834;10.740;2022-12-18T04:33:15;-12.60;99.90
9403;DHT22;4741;49.834;10.740;2022-12-18T04:35:42;-11.80;99.90
9403;DHT22;4741;49.834;10.740;2022-12-18T04:38:09;-12.10;99.90
9403;DHT22;4741;49.834;10.740;2022-12-18T04:40:39;-11.60;99.90
9403;DHT22;4741;49.834;10.740;2022-12-18T04:43:07;-11.80;99.90
9403;DHT22;4741;49.834;10.740;2022-12-18T04:45:34;-10.90;99.90
9403;DHT22;4741;49.834;10.740;2022-12-18T04:48:01;-10.80;99.90
9403;DHT22;4741;49.834;10.740;2022-12-18T04:50:29;-11.00;99.90
9403;DHT22;4741;49.834;10.740;2022-12-18T04:52:56;-11.30;99.90
9403;DHT22;4741;49.834;10.740;2022-12-18T04:55:23;-10.40;99.90
9403;DHT22;4741;49.834;10.740;2022-12-18T04:57:50;-11.10;99.90
9403;DHT22;4741;49.834;10.740;2022-12-18T05:00:17;-11.30;99.90
9403;DHT22;4741;49.834;10.740;2022-12-18T05:02:44;-10.90;99.90
9403;DHT22;4741;49.834;10.740;2022-12-18T05:05:10;-10.50;99.90
9403;DHT22;4741;49.834;10.740;2022-12-18T05:07:37;-10.80;99.90
9403;DHT22;4741;49.834;10.740;2022-12-18T05:10:04;-10.90;99.90
9403;DHT22;4741;49.834;10.740;2022-12-18T05:12:32;-10.60;99.90
9403;DHT22;4741;49.834;10.740;2022-12-18T05:14:59;-9.80;99.90
9403;DHT22;4741;49.834;10.740;2022-12-18T05:17:25;-9.60;99.90
9403;DHT22;4741;49.834;10.740;2022-12-18T05:19:52;-10.80;99.90
9403;DHT22;4741;49.834;10.740;2022-12-18T05:22:19;-10.50;99.90
9403;DHT22;4741;49.834;10.740;2022-12-18T05:24:46;-10.20;99.90
9403;DHT22;4741;49.834;10.740;2022-12-18T05:27:13;-10.00;99.90
9403;DHT22;4741;49.834;10.740;2022-12-18T05:29:39;-10.80;99.90
9403;DHT22;4741;49.834;10.740;2022-12-18T05:32:06;-10.00;99.90
9403;DHT22;4741;49.834;10.740;2022-12-18T05:34:33;-10.50;99.90
9403;DHT22;4741;49.834;10.740;2022-12-18T05:37:00;-10.60;99.90
9403;DHT22;4741;49.834;10.740;2022-12-18T05:39:26;-11.10;99.90
9403;DHT22;4741;49.834;10.740;2022-12-18T05:41:53;-10.90;99.90
9403;DHT22;4741;49.834;10.740;2022-12-18T05:44:20;-10.10;99.90
9403;DHT22;4741;49.834;10.740;2022-12-18T05:46:47;-10.50;99.90
9403;DHT22;4741;49.834;10.740;2022-12-18T05:49:14;-10.20;99.90
9403;DHT22;4741;49.834;10.740;2022-12-18T05:51:41;-10.50;99.90
9403;DHT22;4741;49.834;10.740;2022-12-18T05:54:08;-9.40;99.90
9403;DHT22;4741;49.834;10.740;2022-12-18T05:56:35;-9.80;99.90
9403;DHT22;4741;49.834;10.740;2022-12-18T05:59:02;-9.40;99.90
9403;DHT22;4741;49.834;10.740;2022-12-18T06:01:29;-9.00;99.90
9403;DHT22;4741;49.834;10.740;2022-12-18T06:03:56;-9.60;99.90
9403;DHT22;4741;49.834;10.740;2022-12-18T06:06:24;-9.80;99.90
9403;DHT22;4741;49.834;10.740;2022-12-18T06:08:53;-8.80;99.90
9403;DHT22;4741;49.834;10.740;2022-12-18T06:11:21;-9.40;99.90
9403;DHT22;4741;49.834;10.740;2022-12-18T06:13:53;-8.70;99.90
9403;DHT22;4741;49.834;10.740;2022-12-18T06:16:25;-9.40;99.90
9403;DHT22;4741;49.834;10.740;2022-12-18T06:21:24;-9.00;99.90
9403;DHT22;4741;49.834;10.740;2022-12-18T06:23:51;-9.60;99.90
9403;DHT22;4741;49.834;10.740;2022-12-18T06:26:18;-9.60;99.90
9403;DHT22;4741;49.834;10.740;2022-12-18T06:31:20;-9.00;99.90
9403;DHT22;4741;49.834;10.740;2022-12-18T06:33:47;-8.50;99.90
9403;DHT22;4741;49.834;10.740;2022-12-18T06:36:14;-8.40;99.90
9403;DHT22;4741;49.834;10.740;2022-12-18T06:38:41;-9.20;99.90
9403;DHT22;4741;49.834;10.740;2022-12-18T06:41:10;-8.20;99.90
9403;DHT22;4741;49.834;10.740;2022-12-18T06:43:39;-9.50;99.90
9403;DHT22;4741;49.834;10.740;2022-12-18T06:46:07;-9.00;99.90
9403;DHT22;4741;49.834;10.740;2022-12-18T06:48:35;-8.90;99.90
9403;DHT22;4741;49.834;10.740;2022-12-18T06:51:02;-9.00;99.90
9403;DHT22;4741;49.834;10.740;2022-12-18T06:53:31;-8.50;99.90
9403;DHT22;4741;49.834;10.740;2022-12-18T06:56:02;-9.10;99.90
9403;DHT22;4741;49.834;10.740;2022-12-18T06:58:35;-8.60;99.90
9403;DHT22;4741;49.834;10.740;2022-12-18T07:01:03;-8.60;99.90
9403;DHT22;4741;49.834;10.740;2022-12-18T07:03:31;-8.50;99.90
9403;DHT22;4741;49.834;10.740;2022-12-18T07:05:58;-9.20;99.90
9403;DHT22;4741;49.834;10.740;2022-12-18T07:08:25;-9.20;99.90
9403;DHT22;4741;49.834;10.740;2022-12-18T07:10:52;-8.00;99.90
9403;DHT22;4741;49.834;10.740;2022-12-18T07:13:22;-7.90;99.90
9403;DHT22;4741;49.834;10.740;2022-12-18T07:15:49;-8.50;99.90
9403;DHT22;4741;49.834;10.740;2022-12-18T07:18:16;-8.60;99.90
9403;DHT22;4741;49.834;10.740;2022-12-18T07:20:43;-8.10;99.90
9403;DHT22;4741;49.834;10.740;2022-12-18T07:23:11;-7.90;99.90
9403;DHT22;4741;49.834;10.740;2022-12-18T07:25:38;-8.20;99.90
9403;DHT22;4741;49.834;10.740;2022-12-18T07:28:06;-8.40;99.90
9403;DHT22;4741;49.834;10.740;2022-12-18T07:30:37;-8.50;99.90
9403;DHT22;4741;49.834;10.740;2022-12-18T07:33:04;-8.20;99.90
9403;DHT22;4741;49.834;10.740;2022-12-18T07:35:32;-8.00;99.90
9403;DHT22;4741;49.834;10.740;2022-12-18T07:38:01;-8.30;99.90
9403;DHT22;4741;49.834;10.740;2022-12-18T07:40:27;-8.00;99.90
9403;DHT22;4741;49.834;10.740;2022-12-18T07:42:54;-8.00;99.90
9403;DHT22;4741;49.834;10.740;2022-12-18T07:45:21;-8.00;99.90
9403;DHT22;4741;49.834;10.740;2022-12-18T07:47:48;-7.70;99.90
9403;DHT22;4741;49.834;10.740;2022-12-18T07:50:15;-7.40;99.90
9403;DHT22;4741;49.834;10.740;2022-12-18T07:52:51;-6.70;99.90
9403;DHT22;4741;49.834;10.740;2022-12-18T07:55:31;-7.70;99.90
9403;DHT22;4741;49.834;10.740;2022-12-18T07:58:31;-7.50;99.90
9403;DHT22;4741;49.834;10.740;2022-12-18T08:01:12;-7.30;99.90
9403;DHT22;4741;49.834;10.740;2022-12-18T08:07:20;-6.90;99.90
9403;DHT22;4741;49.834;10.740;2022-12-18T08:09:59;-6.30;99.90
9403;DHT22;4741;49.834;10.740;2022-12-18T08:12:35;-7.40;99.90
9403;DHT22;4741;49.834;10.740;2022-12-18T08:15:48;-8.00;99.90
9403;DHT22;4741;49.834;10.740;2022-12-18T08:21:09;-7.50;99.90
9403;DHT22;4741;49.834;10.740;2022-12-18T08:23:42;-7.20;99.90
9403;DHT22;4741;49.834;10.740;2022-12-18T08:26:10;-7.90;99.90
9403;DHT22;4741;49.834;10.740;2022-12-18T08:28:48;-7.00;99.90
9403;DHT22;4741;49.834;10.740;2022-12-18T08:31:18;-6.60;99.90
9403;DHT22;4741;49.834;10.740;2022-12-18T08:33:57;-7.10;99.90
9403;DHT22;4741;49.834;10.740;2022-12-18T08:36:39;-7.20;99.90
9403;DHT22;4741;49.834;10.740;2022-12-18T08:39:06;-6.60;99.90
9403;DHT22;4741;49.834;10.740;2022-12-18T08:44:35;-7.10;99.90
9403;DHT22;4741;49.834;10.740;2022-12-18T08:47:08;-7.30;99.90
9403;DHT22;4741;49.834;10.740;2022-12-18T08:49:41;-6.70;99.90
9403;DHT22;4741;49.834;10.740;2022-12-18T08:52:09;-6.90;99.90
9403;DHT22;4741;49.834;10.740;2022-12-18T08:54:36;-7.40;99.90
9403;DHT22;4741;49.834;10.740;2022-12-18T09:02:30;-6.70;99.90
9403;DHT22;4741;49.834;10.740;2022-12-18T09:05:04;-6.40;99.90
9403;DHT22;4741;49.834;10.740;2022-12-18T09:07:34;-6.60;99.90
9403;DHT22;4741;49.834;10.740;2022-12-18T09:10:01;-6.30;99.90
9403;DHT22;4741;49.834;10.740;2022-12-18T09:12:34;-6.80;99.90
9403;DHT22;4741;49.834;10.740;2022-12-18T09:15:15;-6.60;99.90
9403;DHT22;4741;49.834;10.740;2022-12-18T09:17:46;-5.60;99.90
9403;DHT22;4741;49.834;10.740;2022-12-18T09:22:45;-6.60;99.90
9403;DHT22;4741;49.834;10.740;2022-12-18T09:25:29;-6.90;99.90
9403;DHT22;4741;49.834;10.740;2022-12-18T09:28:13;-6.50;99.90
9403;DHT22;4741;49.834;10.740;2022-12-18T09:30:43;-6.50;99.90
9403;DHT22;4741;49.834;10.740;2022-12-18T09:35:41;-6.20;99.90
9403;DHT22;4741;49.834;10.740;2022-12-18T09:38:14;-4.10;99.90
9403;DHT22;4741;49.834;10.740;2022-12-18T09:40:58;-6.20;99.90
9403;DHT22;4741;49.834;10.740;2022-12-18T09:46:01;-5.90;99.90
9403;DHT22;4741;49.834;10.740;2022-12-18T09:48:42;-5.50;99.90
9403;DHT22;4741;49.834;10.740;2022-12-18T09:51:42;-6.70;99.90
9403;DHT22;4741;49.834;10.740;2022-12-18T09:54:21;-5.70;99.90
9403;DHT22;4741;49.834;10.740;2022-12-18T09:56:52;-5.70;99.90
9403;DHT22;4741;49.834;10.740;2022-12-18T09:59:26;-5.90;99.90
9403;DHT22;4741;49.834;10.740;2022-12-18T10:02:21;-5.60;99.90
9403;DHT22;4741;49.834;10.740;2022-12-18T10:13:52;-5.30;99.90
9403;DHT22;4741;49.834;10.740;2022-12-18T10:30:49;-4.90;99.90
9403;DHT22;4741;49.834;10.740;2022-12-18T10:57:56;-3.10;99.90
9403;DHT22;4741;49.834;10.740;2022-12-18T11:27:33;-2.40;99.90
9403;DHT22;4741;49.834;10.740;2022-12-18T13:01:09;1.20;99.90
9403;DHT22;4741;49.834;10.740;2022-12-18T13:03:54;1.00;99.90
9403;DHT22;4741;49.834;10.740;2022-12-18T13:09:14;1.10;99.90
9403;DHT22;4741;49.834;10.740;2022-12-18T13:11:42;0.90;99.90
9403;DHT22;4741;49.834;10.740;2022-12-18T13:14:31;0.80;99.90
9403;DHT22;4741;49.834;10.740;2022-12-18T13:19:48;1.10;99.90
9403;DHT22;4741;49.834;10.740;2022-12-18T13:22:28;1.20;99.90
9403;DHT22;4741;49.834;10.740;2022-12-18T13:24:59;0.80;99.90
9403;DHT22;4741;49.834;10.740;2022-12-18T13:35:41;-0.20;99.90
9403;DHT22;4741;49.834;10.740;2022-12-18T13:38:23;-0.40;99.90
9403;DHT22;4741;49.834;10.740;2022-12-18T13:44:10;-0.90;99.90
9403;DHT22;4741;49.834;10.740;2022-12-18T13:46:47;-1.10;99.90
9403;DHT22;4741;49.834;10.740;2022-12-18T13:52:15;-1.10;99.90
9403;DHT22;4741;49.834;10.740;2022-12-18T13:54:47;-1.20;99.90
9403;DHT22;4741;49.834;10.740;2022-12-18T13:57:30;-1.30;99.90
9403;DHT22;4741;49.834;10.740;2022-12-18T14:02:59;-1.40;99.90
9403;DHT22;4741;49.834;10.740;2022-12-18T14:05:27;-1.40;99.90
9403;DHT22;4741;49.834;10.740;2022-12-18T14:07:59;-1.50;99.90
9403;DHT22;4741;49.834;10.740;2022-12-18T14:10:32;-1.60;99.90
9403;DHT22;4741;49.834;10.740;2022-12-18T14:13:23;-1.70;99.90
9403;DHT22;4741;49.834;10.740;2022-12-18T14:15:54;-1.80;99.90
9403;DHT22;4741;49.834;10.740;2022-12-18T14:18:38;-1.70;99.90
9403;DHT22;4741;49.834;10.740;2022-12-18T14:21:18;-1.90;99.90
9403;DHT22;4741;49.834;10.740;2022-12-18T14:26:27;-2.00;99.90
9403;DHT22;4741;49.834;10.740;2022-12-18T14:28:56;-2.00;99.90
9403;DHT22;4741;49.834;10.740;2022-12-18T14:31:25;-2.10;99.90
9403;DHT22;4741;49.834;10.740;2022-12-18T14:36:22;-2.30;99.90
9403;DHT22;4741;49.834;10.740;2022-12-18T14:38:54;-2.40;99.90
9403;DHT22;4741;49.834;10.740;2022-12-18T14:43:52;-2.60;99.90
9403;DHT22;4741;49.834;10.740;2022-12-18T14:49:03;-2.80;99.90
9403;DHT22;4741;49.834;10.740;2022-12-18T14:51:32;-2.90;99.90
9403;DHT22;4741;49.834;10.740;2022-12-18T14:54:01;-2.90;99.90
9403;DHT22;4741;49.834;10.740;2022-12-18T14:56:35;-3.00;99.90
9403;DHT22;4741;49.834;10.740;2022-12-18T14:59:12;-3.10;99.90
9403;DHT22;4741;49.834;10.740;2022-12-18T15:20:45;-3.60;99.90
9403;DHT22;4741;49.834;10.740;2022-12-18T15:23:22;-3.60;99.90
9403;DHT22;4741;49.834;10.740;2022-12-18T15:25:59;-3.70;99.90
9403;DHT22;4741;49.834;10.740;2022-12-18T15:36:19;-3.90;99.90
9403;DHT22;4741;49.834;10.740;2022-12-18T15:38:53;-3.90;99.90
9403;DHT22;4741;49.834;10.740;2022-12-18T15:41:30;-4.10;99.90
9403;DHT22;4741;49.834;10.740;2022-12-18T15:44:01;-4.00;99.90
9403;DHT22;4741;49.834;10.740;2022-12-18T15:48:57;-4.20;99.90
9403;DHT22;4741;49.834;10.740;2022-12-18T15:53:58;-4.40;99.90
9403;DHT22;4741;49.834;10.740;2022-12-18T15:56:27;-4.40;99.90
9403;DHT22;4741;49.834;10.740;2022-12-18T15:59:14;-4.50;99.90
9403;DHT22;4741;49.834;10.740;2022-12-18T16:01:46;-4.50;99.90
9403;DHT22;4741;49.834;10.740;2022-12-18T16:04:15;-4.60;99.90
9403;DHT22;4741;49.834;10.740;2022-12-18T16:06:43;-4.60;99.90
9403;DHT22;4741;49.834;10.740;2022-12-18T16:09:30;-4.60;99.90
9403;DHT22;4741;49.834;10.740;2022-12-18T16:11:56;-4.70;99.90
9403;DHT22;4741;49.834;10.740;2022-12-18T16:14:27;-4.70;99.90
9403;DHT22;4741;49.834;10.740;2022-12-18T16:17:00;-4.70;99.90
9403;DHT22;4741;49.834;10.740;2022-12-18T16:19:28;-4.70;99.90
9403;DHT22;4741;49.834;10.740;2022-12-18T16:21:56;-4.80;99.90
9403;DHT22;4741;49.834;10.740;2022-12-18T16:24:24;-4.80;99.90
9403;DHT22;4741;49.834;10.740;2022-12-18T16:26:53;-4.90;99.90
9403;DHT22;4741;49.834;10.740;2022-12-18T16:29:23;-4.80;99.90
9403;DHT22;4741;49.834;10.740;2022-12-18T16:31:54;-4.80;99.90
9403;DHT22;4741;49.834;10.740;2022-12-18T16:36:59;-4.50;99.90
9403;DHT22;4741;49.834;10.740;2022-12-18T16:39:32;-4.90;99.90
9403;DHT22;4741;49.834;10.740;2022-12-18T16:42:06;-4.70;99.90
9403;DHT22;4741;49.834;10.740;2022-12-18T16:44:46;-4.90;99.90
9403;DHT22;4741;49.834;10.740;2022-12-18T16:47:14;-4.90;99.90
9403;DHT22;4741;49.834;10.740;2022-12-18T16:49:42;-4.90;99.90
9403;DHT22;4741;49.834;10.740;2022-12-18T16:52:11;-4.60;99.90
9403;DHT22;4741;49.834;10.740;2022-12-18T16:54:38;-5.00;99.90
9403;DHT22;4741;49.834;10.740;2022-12-18T16:57:05;-5.10;99.90
9403;DHT22;4741;49.834;10.740;2022-12-18T16:59:32;-4.80;99.90
9403;DHT22;4741;49.834;10.740;2022-12-18T17:01:59;-3.50;99.90
9403;DHT22;4741;49.834;10.740;2022-12-18T17:04:26;-4.30;99.90
9403;DHT22;4741;49.834;10.740;2022-12-18T17:06:53;-4.30;99.90
9403;DHT22;4741;49.834;10.740;2022-12-18T17:09:20;-5.00;99.90
9403;DHT22;4741;49.834;10.740;2022-12-18T17:11:51;-5.00;99.90
9403;DHT22;4741;49.834;10.740;2022-12-18T17:14:19;-4.90;99.90
9403;DHT22;4741;49.834;10.740;2022-12-18T17:16:48;-5.20;99.90
9403;DHT22;4741;49.834;10.740;2022-12-18T17:19:35;-5.20;99.90
9403;DHT22;4741;49.834;10.740;2022-12-18T17:22:02;-5.20;99.90
9403;DHT22;4741;49.834;10.740;2022-12-18T17:24:29;-4.60;99.90
9403;DHT22;4741;49.834;10.740;2022-12-18T17:27:00;-5.10;99.90
9403;DHT22;4741;49.834;10.740;2022-12-18T17:29:28;-4.60;99.90
9403;DHT22;4741;49.834;10.740;2022-12-18T17:31:54;-4.80;99.90
9403;DHT22;4741;49.834;10.740;2022-12-18T17:34:23;-5.20;99.90
9403;DHT22;4741;49.834;10.740;2022-12-18T17:36:49;-5.20;99.90
9403;DHT22;4741;49.834;10.740;2022-12-18T17:39:17;-4.40;99.90
9403;DHT22;4741;49.834;10.740;2022-12-18T17:41:45;-5.20;99.90
9403;DHT22;4741;49.834;10.740;2022-12-18T17:44:13;-4.90;99.90
9403;DHT22;4741;49.834;10.740;2022-12-18T17:46:40;-5.20;99.90
9403;DHT22;4741;49.834;10.740;2022-12-18T17:49:07;-5.10;99.90
9403;DHT22;4741;49.834;10.740;2022-12-18T17:51:34;-4.70;99.90
9403;DHT22;4741;49.834;10.740;2022-12-18T17:54:01;-5.00;99.90
9403;DHT22;4741;49.834;10.740;2022-12-18T17:56:28;-5.10;99.90
9403;DHT22;4741;49.834;10.740;2022-12-18T17:58:54;-5.00;99.90
9403;DHT22;4741;49.834;10.740;2022-12-18T18:01:22;-5.00;99.90
9403;DHT22;4741;49.834;10.740;2022-12-18T18:03:51;-4.60;99.90
9403;DHT22;4741;49.834;10.740;2022-12-18T18:06:21;-4.60;99.90
9403;DHT22;4741;49.834;10.740;2022-12-18T18:08:52;-4.50;99.90
9403;DHT22;4741;49.834;10.740;2022-12-18T18:11:20;-4.60;99.90
9403;DHT22;4741;49.834;10.740;2022-12-18T18:14:10;-3.90;99.90
9403;DHT22;4741;49.834;10.740;2022-12-18T18:16:40;-3.60;99.90
9403;DHT22;4741;49.834;10.740;2022-12-18T18:19:09;-4.70;99.90
9403;DHT22;4741;49.834;10.740;2022-12-18T18:21:39;-4.70;99.90
9403;DHT22;4741;49.834;10.740;2022-12-18T18:24:08;-4.40;99.90
9403;DHT22;4741;49.834;10.740;2022-12-18T18:26:36;-4.70;99.90
9403;DHT22;4741;49.834;10.740;2022-12-18T18:29:04;-4.50;99.90
9403;DHT22;4741;49.834;10.740;2022-12-18T18:31:32;-4.40;99.90
9403;DHT22;4741;49.834;10.740;2022-12-18T18:34:07;-4.50;99.90
9403;DHT22;4741;49.834;10.740;2022-12-18T18:36:38;-4.60;99.90
9403;DHT22;4741;49.834;10.740;2022-12-18T18:39:05;-4.50;99.90
9403;DHT22;4741;49.834;10.740;2022-12-18T18:41:34;-4.50;99.90
9403;DHT22;4741;49.834;10.740;2022-12-18T18:44:01;-4.50;99.90
9403;DHT22;4741;49.834;10.740;2022-12-18T18:46:27;-4.60;99.90
9403;DHT22;4741;49.834;10.740;2022-12-18T18:48:54;-4.70;99.90
9403;DHT22;4741;49.834;10.740;2022-12-18T18:51:21;-4.50;99.90
9403;DHT22;4741;49.834;10.740;2022-12-18T18:53:49;-4.40;99.90
9403;DHT22;4741;49.834;10.740;2022-12-18T18:59:07;-4.30;99.90
9403;DHT22;4741;49.834;10.740;2022-12-18T19:01:34;-4.30;99.90
9403;DHT22;4741;49.834;10.740;2022-12-18T19:04:01;-4.30;99.90
9403;DHT22;4741;49.834;10.740;2022-12-18T19:06:28;-4.30;99.90
9403;DHT22;4741;49.834;10.740;2022-12-18T19:08:57;-4.00;99.90
9403;DHT22;4741;49.834;10.740;2022-12-18T19:11:24;-4.30;99.90
9403;DHT22;4741;49.834;10.740;2022-12-18T19:14:11;-4.30;99.90
9403;DHT22;4741;49.834;10.740;2022-12-18T19:16:39;-4.30;99.90
9403;DHT22;4741;49.834;10.740;2022-12-18T19:19:07;-4.20;99.90
9403;DHT22;4741;49.834;10.740;2022-12-18T19:21:34;-4.20;99.90
9403;DHT22;4741;49.834;10.740;2022-12-18T19:24:01;-4.30;99.90
9403;DHT22;4741;49.834;10.740;2022-12-18T19:26:28;-4.20;99.90
9403;DHT22;4741;49.834;10.740;2022-12-18T19:29:02;-4.20;99.90
9403;DHT22;4741;49.834;10.740;2022-12-18T19:31:30;-4.30;99.90
9403;DHT22;4741;49.834;10.740;2022-12-18T19:34:02;-4.30;99.90
9403;DHT22;4741;49.834;10.740;2022-12-18T19:36:32;-4.30;99.90
9403;DHT22;4741;49.834;10.740;2022-12-18T19:39:00;-4.30;99.90
9403;DHT22;4741;49.834;10.740;2022-12-18T19:41:28;-4.30;99.90
9403;DHT22;4741;49.834;10.740;2022-12-18T19:43:59;-4.30;99.90
9403;DHT22;4741;49.834;10.740;2022-12-18T19:46:33;-4.30;99.90
9403;DHT22;4741;49.834;10.740;2022-12-18T19:49:00;-4.30;99.90
9403;DHT22;4741;49.834;10.740;2022-12-18T19:51:27;-4.30;99.90
9403;DHT22;4741;49.834;10.740;2022-12-18T19:53:55;-4.30;99.90
9403;DHT22;4741;49.834;10.740;2022-12-18T19:56:26;-4.20;99.90
9403;DHT22;4741;49.834;10.740;2022-12-18T19:58:54;-4.20;99.90
9403;DHT22;4741;49.834;10.740;2022-12-18T20:01:21;-4.30;99.90
9403;DHT22;4741;49.834;10.740;2022-12-18T20:03:50;-4.30;99.90
9403;DHT22;4741;49.834;10.740;2022-12-18T20:08:50;-3.90;99.90
9403;DHT22;4741;49.834;10.740;2022-12-18T20:11:19;-4.20;99.90
9403;DHT22;4741;49.834;10.740;2022-12-18T20:13:46;-4.20;99.90
9403;DHT22;4741;49.834;10.740;2022-12-18T20:16:12;-4.20;99.90
9403;DHT22;4741;49.834;10.740;2022-12-18T20:18:39;-4.20;99.90
9403;DHT22;4741;49.834;10.740;2022-12-18T20:21:07;-4.20;99.90
9403;DHT22;4741;49.834;10.740;2022-12-18T20:23:39;-4.20;99.90
9403;DHT22;4741;49.834;10.740;2022-12-18T20:26:07;-4.20;99.90
9403;DHT22;4741;49.834;10.740;2022-12-18T20:28:34;-4.20;99.90
9403;DHT22;4741;49.834;10.740;2022-12-18T20:31:02;-4.20;99.90
9403;DHT22;4741;49.834;10.740;2022-12-18T20:33:30;-4.20;99.90
9403;DHT22;4741;49.834;10.740;2022-12-18T20:36:00;-4.20;99.90
9403;DHT22;4741;49.834;10.740;2022-12-18T20:38:29;-4.20;99.90
9403;DHT22;4741;49.834;10.740;2022-12-18T20:40:57;-4.10;99.90
9403;DHT22;4741;49.834;10.740;2022-12-18T20:43:24;-4.10;99.90
9403;DHT22;4741;49.834;10.740;2022-12-18T20:45:58;-4.10;99.90
9403;DHT22;4741;49.834;10.740;2022-12-18T20:48:26;-4.10;99.90
9403;DHT22;4741;49.834;10.740;2022-12-18T20:50:57;-4.10;99.90
9403;DHT22;4741;49.834;10.740;2022-12-18T20:53:31;-4.20;99.90
9403;DHT22;4741;49.834;10.740;2022-12-18T20:55:58;-4.20;99.90